sensor_id;sensor_type;location;lat;lon;timestamp;pressure;altitude;pressure_sealevel;temperature;humidity
22047;BME280;11187;49.412;20.956;2022-08-03T00:01:10;95442.81;;;15.52;100.00
22047;BME280;11187;49.412;20.956;2022-08-03T00:04:04;95453.13;;;15.52;100.00
22047;BME280;11187;49.412;20.956;2022-08-03T00:06:39;95445.41;;;15.51;100.00
22047;BME280;11187;49.412;20.956;2022-08-03T00:09:32;95444.69;;;15.47;100.00
22047;BME280;11187;49.412;20.956;2022-08-03T00:12:26;95445.69;;;15.43;100.00
22047;BME280;11187;49.412;20.956;2022-08-03T00:15:00;95443.13;;;15.41;100.00
22047;BME280;11187;49.412;20.956;2022-08-03T00:17:55;95455.25;;;15.39;100.00
22047;BME280;11187;49.412;20.956;2022-08-03T00:20:29;95457.03;;;15.37;100.00
22047;BME280;11187;49.412;20.956;2022-08-03T00:23:15;95463.09;;;15.36;100.00
22047;BME280;11187;49.412;20.956;2022-08-03T00:25:49;95455.47;;;15.33;100.00
22047;BME280;11187;49.412;20.956;2022-08-03T00:28:35;95461.50;;;15.32;100.00
22047;BME280;11187;49.412;20.956;2022-08-03T00:31:09;95465.81;;;15.32;100.00
22047;BME280;11187;49.412;20.956;2022-08-03T00:33:54;95458.06;;;15.32;100.00
22047;BME280;11187;49.412;20.956;2022-08-03T00:36:35;95457.25;;;15.31;100.00
22047;BME280;11187;49.412;20.956;2022-08-03T00:39:29;95454.69;;;15.30;100.00
22047;BME280;11187;49.412;20.956;2022-08-03T00:42:03;95458.91;;;15.32;100.00
22047;BME280;11187;49.412;20.956;2022-08-03T00:44:50;95460.75;;;15.29;100.00
22047;BME280;11187;49.412;20.956;2022-08-03T00:47:24;95462.53;;;15.27;100.00
22047;BME280;11187;49.412;20.956;2022-08-03T00:50:11;95462.63;;;15.23;100.00
22047;BME280;11187;49.412;20.956;2022-08-03T00:52:46;95454.94;;;15.22;100.00
22047;BME280;11187;49.412;20.956;2022-08-03T00:55:34;95461.78;;;15.23;100.00
22047;BME280;11187;49.412;20.956;2022-08-03T00:58:08;95460.91;;;15.24;100.00
22047;BME280;11187;49.412;20.956;2022-08-03T01:00:54;95459.16;;;15.24;100.00
22047;BME280;11187;49.412;20.956;2022-08-03T01:03:28;95461.72;;;15.26;100.00
22047;BME280;11187;49.412;20.956;2022-08-03T01:06:30;95459.06;;;15.28;100.00
22047;BME280;11187;49.412;20.956;2022-08-03T01:09:21;95454.81;;;15.27;100.00
22047;BME280;11187;49.412;20.956;2022-08-03T01:12:27;95461.59;;;15.29;100.00
22047;BME280;11187;49.412;20.956;2022-08-03T01:18:35;95458.19;;;15.29;100.00
22047;BME280;11187;49.412;20.956;2022-08-03T01:21:31;95455.59;;;15.29;100.00
22047;BME280;11187;49.412;20.956;2022-08-03T01:27:27;95459.84;;;15.30;100.00
22047;BME280;11187;49.412;20.956;2022-08-03T01:30:05;95460.66;;;15.32;100.00
22047;BME280;11187;49.412;20.956;2022-08-03T01:33:05;95464.03;;;15.34;100.00
22047;BME280;11187;49.412;20.956;2022-08-03T01:35:49;95465.78;;;15.33;100.00
22047;BME280;11187;49.412;20.956;2022-08-03T01:38:52;95464.88;;;15.34;100.00
22047;BME280;11187;49.412;20.956;2022-08-03T01:41:53;95465.72;;;15.35;100.00
22047;BME280;11187;49.412;20.956;2022-08-03T01:44:36;95467.44;;;15.34;100.00
22047;BME280;11187;49.412;20.956;2022-08-03T01:47:31;95457.97;;;15.35;100.00
22047;BME280;11187;49.412;20.956;2022-08-03T01:50:06;95455.34;;;15.36;100.00
22047;BME280;11187;49.412;20.956;2022-08-03T01:52:57;95457.88;;;15.38;100.00
22047;BME280;11187;49.412;20.956;2022-08-03T01:55:31;95458.69;;;15.40;100.00
22047;BME280;11187;49.412;20.956;2022-08-03T01:58:25;95457.81;;;15.39;100.00
22047;BME280;11187;49.412;20.956;2022-08-03T02:01:02;95451.81;;;15.39;100.00
22047;BME280;11187;49.412;20.956;2022-08-03T02:03:49;95438.09;;;15.38;100.00
22047;BME280;11187;49.412;20.956;2022-08-03T02:06:28;95440.72;;;15.37;100.00
22047;BME280;11187;49.412;20.956;2022-08-03T02:09:40;95433.94;;;15.33;100.00
22047;BME280;11187;49.412;20.956;2022-08-03T02:12:17;95433.22;;;15.29;100.00
22047;BME280;11187;49.412;20.956;2022-08-03T02:15:14;95440.19;;;15.25;100.00
22047;BME280;11187;49.412;20.956;2022-08-03T02:17:48;95433.38;;;15.24;100.00
22047;BME280;11187;49.412;20.956;2022-08-03T02:20:43;95433.38;;;15.24;100.00
22047;BME280;11187;49.412;20.956;2022-08-03T02:23:37;95435.00;;;15.27;100.00
22047;BME280;11187;49.412;20.956;2022-08-03T02:26:14;95438.38;;;15.29;100.00
22047;BME280;11187;49.412;20.956;2022-08-03T02:29:10;95432.28;;;15.32;100.00
22047;BME280;11187;49.412;20.956;2022-08-03T02:32:11;95441.66;;;15.34;100.00
22047;BME280;11187;49.412;20.956;2022-08-03T02:35:10;95438.19;;;15.35;100.00
22047;BME280;11187;49.412;20.956;2022-08-03T02:38:06;95435.63;;;15.35;100.00
22047;BME280;11187;49.412;20.956;2022-08-03T02:41:04;95426.97;;;15.36;100.00
22047;BME280;11187;49.412;20.956;2022-08-03T02:44:01;95431.38;;;15.33;100.00
22047;BME280;11187;49.412;20.956;2022-08-03T02:46:44;95430.59;;;15.31;100.00
22047;BME280;11187;49.412;20.956;2022-08-03T02:49:32;95435.84;;;15.28;100.00
22047;BME280;11187;49.412;20.956;2022-08-03T02:52:22;95439.31;;;15.27;100.00
22047;BME280;11187;49.412;20.956;2022-08-03T02:55:10;95435.03;;;15.25;100.00
22047;BME280;11187;49.412;20.956;2022-08-03T02:57:45;95435.94;;;15.24;100.00
22047;BME280;11187;49.412;20.956;2022-08-03T03:00:33;95436.81;;;15.23;100.00
22047;BME280;11187;49.412;20.956;2022-08-03T03:03:08;95438.59;;;15.21;100.00
22047;BME280;11187;49.412;20.956;2022-08-03T03:06:08;95443.00;;;15.19;100.00
22047;BME280;11187;49.412;20.956;2022-08-03T03:08:45;95449.06;;;15.17;100.00
22047;BME280;11187;49.412;20.956;2022-08-03T03:11:39;95448.34;;;15.13;100.00
22047;BME280;11187;49.412;20.956;2022-08-03T03:14:13;95450.13;;;15.11;100.00
22047;BME280;11187;49.412;20.956;2022-08-03T03:17:13;95453.63;;;15.09;100.00
22047;BME280;11187;49.412;20.956;2022-08-03T03:19:50;95443.34;;;15.07;100.00
22047;BME280;11187;49.412;20.956;2022-08-03T03:22:47;95451.13;;;15.06;100.00
22047;BME280;11187;49.412;20.956;2022-08-03T03:25:21;95452.88;;;15.05;100.00
22047;BME280;11187;49.412;20.956;2022-08-03T03:28:09;95457.22;;;15.03;100.00
22047;BME280;11187;49.412;20.956;2022-08-03T03:30:42;95453.84;;;15.01;100.00
22047;BME280;11187;49.412;20.956;2022-08-03T03:33:35;95455.66;;;14.99;100.00
22047;BME280;11187;49.412;20.956;2022-08-03T03:36:09;95461.66;;;14.99;100.00
22047;BME280;11187;49.412;20.956;2022-08-03T03:38:56;95456.44;;;15.01;100.00
22047;BME280;11187;49.412;20.956;2022-08-03T03:41:42;95458.13;;;15.02;100.00
22047;BME280;11187;49.412;20.956;2022-08-03T03:44:29;95453.81;;;15.02;100.00
22047;BME280;11187;49.412;20.956;2022-08-03T03:47:02;95468.41;;;15.03;100.00
22047;BME280;11187;49.412;20.956;2022-08-03T03:49:49;95458.03;;;15.05;100.00
22047;BME280;11187;49.412;20.956;2022-08-03T03:52:23;95458.03;;;15.05;100.00
22047;BME280;11187;49.412;20.956;2022-08-03T03:55:17;95460.56;;;15.07;100.00
22047;BME280;11187;49.412;20.956;2022-08-03T03:57:51;95463.13;;;15.08;100.00
22047;BME280;11187;49.412;20.956;2022-08-03T04:00:37;95464.88;;;15.06;100.00
22047;BME280;11187;49.412;20.956;2022-08-03T04:03:11;95462.31;;;15.06;100.00
22047;BME280;11187;49.412;20.956;2022-08-03T04:06:04;95466.59;;;15.06;100.00
22047;BME280;11187;49.412;20.956;2022-08-03T04:09:13;95474.28;;;15.07;100.00
22047;BME280;11187;49.412;20.956;2022-08-03T04:12:27;95469.97;;;15.08;100.00
22047;BME280;11187;49.412;20.956;2022-08-03T04:15:30;95478.59;;;15.08;100.00
22047;BME280;11187;49.412;20.956;2022-08-03T04:18:06;95476.00;;;15.08;100.00
22047;BME280;11187;49.412;20.956;2022-08-03T04:20:58;95480.28;;;15.08;100.00
22047;BME280;11187;49.412;20.956;2022-08-03T04:23:34;95481.91;;;15.12;100.00
22047;BME280;11187;49.412;20.956;2022-08-03T04:26:33;95484.47;;;15.12;100.00
22047;BME280;11187;49.412;20.956;2022-08-03T04:29:09;95493.00;;;15.14;100.00
22047;BME280;11187;49.412;20.956;2022-08-03T04:31:57;95495.59;;;15.14;100.00
22047;BME280;11187;49.412;20.956;2022-08-03T04:34:31;95495.59;;;15.14;100.00
22047;BME280;11187;49.412;20.956;2022-08-03T04:37:40;95494.72;;;15.15;100.00
22047;BME280;11187;49.412;20.956;2022-08-03T04:40:37;95498.97;;;15.16;100.00
22047;BME280;11187;49.412;20.956;2022-08-03T04:43:33;95502.38;;;15.16;100.00
22047;BME280;11187;49.412;20.956;2022-08-03T04:46:07;95491.22;;;15.16;100.00
22047;BME280;11187;49.412;20.956;2022-08-03T04:48:56;95496.34;;;15.17;100.00
22047;BME280;11187;49.412;20.956;2022-08-03T04:51:29;95498.84;;;15.20;100.00
22047;BME280;11187;49.412;20.956;2022-08-03T04:54:17;95503.88;;;15.23;100.00
22047;BME280;11187;49.412;20.956;2022-08-03T04:56:51;95502.97;;;15.26;100.00
22047;BME280;11187;49.412;20.956;2022-08-03T04:59:38;95512.38;;;15.27;100.00
22047;BME280;11187;49.412;20.956;2022-08-03T05:02:12;95507.19;;;15.29;100.00
22047;BME280;11187;49.412;20.956;2022-08-03T05:05:06;95505.31;;;15.34;100.00
22047;BME280;11187;49.412;20.956;2022-08-03T05:08:04;95509.53;;;15.36;100.00
22047;BME280;11187;49.412;20.956;2022-08-03T05:10:38;95498.22;;;15.40;100.00
22047;BME280;11187;49.412;20.956;2022-08-03T05:13:24;95497.25;;;15.44;100.00
22047;BME280;11187;49.412;20.956;2022-08-03T05:15:58;95508.25;;;15.50;100.00
22047;BME280;11187;49.412;20.956;2022-08-03T05:18:44;95506.41;;;15.53;100.00
22047;BME280;11187;49.412;20.956;2022-08-03T05:21:18;95504.59;;;15.57;100.00
22047;BME280;11187;49.412;20.956;2022-08-03T05:24:25;95504.44;;;15.61;100.00
22047;BME280;11187;49.412;20.956;2022-08-03T05:27:04;95509.50;;;15.64;100.00
22047;BME280;11187;49.412;20.956;2022-08-03T05:29:38;95508.50;;;15.69;100.00
22047;BME280;11187;49.412;20.956;2022-08-03T05:32:24;95511.84;;;15.74;100.00
22047;BME280;11187;49.412;20.956;2022-08-03T05:34:58;95508.19;;;15.79;100.00
22047;BME280;11187;49.412;20.956;2022-08-03T05:38:05;95510.47;;;15.89;100.00
22047;BME280;11187;49.412;20.956;2022-08-03T05:40:49;95511.00;;;15.98;100.00
22047;BME280;11187;49.412;20.956;2022-08-03T05:43:56;95506.41;;;16.08;100.00
22047;BME280;11187;49.412;20.956;2022-08-03T05:46:30;95507.81;;;16.17;100.00
22047;BME280;11187;49.412;20.956;2022-08-03T05:49:18;95510.09;;;16.26;100.00
22047;BME280;11187;49.412;20.956;2022-08-03T05:51:51;95504.53;;;16.37;100.00
22047;BME280;11187;49.412;20.956;2022-08-03T05:54:50;95516.94;;;16.52;100.00
22047;BME280;11187;49.412;20.956;2022-08-03T05:57:24;95503.72;;;16.60;100.00
22047;BME280;11187;49.412;20.956;2022-08-03T06:00:12;95511.94;;;16.71;100.00
22047;BME280;11187;49.412;20.956;2022-08-03T06:02:47;95505.59;;;16.81;100.00
22047;BME280;11187;49.412;20.956;2022-08-03T06:05:40;95502.50;;;16.95;100.00
22047;BME280;11187;49.412;20.956;2022-08-03T06:08:39;95510.56;;;17.09;100.00
22047;BME280;11187;49.412;20.956;2022-08-03T06:11:13;95519.69;;;17.20;100.00
22047;BME280;11187;49.412;20.956;2022-08-03T06:13:59;95514.94;;;17.31;100.00
22047;BME280;11187;49.412;20.956;2022-08-03T06:16:33;95515.38;;;17.42;100.00
22047;BME280;11187;49.412;20.956;2022-08-03T06:19:22;95524.72;;;17.46;100.00
22047;BME280;11187;49.412;20.956;2022-08-03T06:21:56;95521.06;;;17.50;100.00
22047;BME280;11187;49.412;20.956;2022-08-03T06:24:49;95520.84;;;17.57;100.00
22047;BME280;11187;49.412;20.956;2022-08-03T06:27:47;95516.22;;;17.65;100.00
22047;BME280;11187;49.412;20.956;2022-08-03T06:30:41;95512.47;;;17.72;100.00
22047;BME280;11187;49.412;20.956;2022-08-03T06:33:36;95509.53;;;17.81;100.00
22047;BME280;11187;49.412;20.956;2022-08-03T06:36:30;95513.31;;;17.94;100.00
22047;BME280;11187;49.412;20.956;2022-08-03T06:39:18;95517.28;;;18.03;100.00
22047;BME280;11187;49.412;20.956;2022-08-03T06:41:51;95512.56;;;18.13;100.00
22047;BME280;11187;49.412;20.956;2022-08-03T06:44:40;95512.03;;;18.25;100.00
22047;BME280;11187;49.412;20.956;2022-08-03T06:47:14;95504.72;;;18.35;100.00
22047;BME280;11187;49.412;20.956;2022-08-03T06:50:09;95512.03;;;18.46;100.00
22047;BME280;11187;49.412;20.956;2022-08-03T06:53:05;95504.50;;;18.60;100.00
22047;BME280;11187;49.412;20.956;2022-08-03T06:55:47;95507.28;;;18.76;100.00
22047;BME280;11187;49.412;20.956;2022-08-03T06:58:40;95499.69;;;18.92;100.00
22047;BME280;11187;49.412;20.956;2022-08-03T07:01:34;95513.63;;;19.08;100.00
22047;BME280;11187;49.412;20.956;2022-08-03T07:04:08;95504.59;;;19.17;100.00
22047;BME280;11187;49.412;20.956;2022-08-03T07:06:54;95506.03;;;19.23;100.00
22047;BME280;11187;49.412;20.956;2022-08-03T07:09:28;95504.84;;;19.30;100.00
22047;BME280;11187;49.412;20.956;2022-08-03T07:12:14;95502.13;;;19.33;100.00
22047;BME280;11187;49.412;20.956;2022-08-03T07:14:51;95493.34;;;19.35;100.00
22047;BME280;11187;49.412;20.956;2022-08-03T07:17:40;95495.72;;;19.40;100.00
22047;BME280;11187;49.412;20.956;2022-08-03T07:20:14;95492.97;;;19.43;100.00
22047;BME280;11187;49.412;20.956;2022-08-03T07:23:00;95493.03;;;19.41;100.00
22047;BME280;11187;49.412;20.956;2022-08-03T07:25:34;95492.09;;;19.44;100.00
22047;BME280;11187;49.412;20.956;2022-08-03T07:28:30;95492.00;;;19.46;100.00
22047;BME280;11187;49.412;20.956;2022-08-03T07:31:04;95487.44;;;19.51;100.00
22047;BME280;11187;49.412;20.956;2022-08-03T07:33:57;95488.94;;;19.55;100.00
22047;BME280;11187;49.412;20.956;2022-08-03T07:36:55;95491.47;;;19.56;100.00
22047;BME280;11187;49.412;20.956;2022-08-03T07:39:48;95494.03;;;19.58;100.00
22047;BME280;11187;49.412;20.956;2022-08-03T07:42:22;95489.38;;;19.65;100.00
22047;BME280;11187;49.412;20.956;2022-08-03T07:45:18;95487.25;;;19.73;100.00
22047;BME280;11187;49.412;20.956;2022-08-03T07:47:51;95486.69;;;19.85;100.00
22047;BME280;11187;49.412;20.956;2022-08-03T07:50:50;95490.44;;;19.97;100.00
22047;BME280;11187;49.412;20.956;2022-08-03T07:53:44;95491.72;;;20.06;100.00
22047;BME280;11187;49.412;20.956;2022-08-03T07:56:42;95484.53;;;20.11;100.00
22047;BME280;11187;49.412;20.956;2022-08-03T07:59:19;95493.09;;;20.13;100.00
22047;BME280;11187;49.412;20.956;2022-08-03T08:02:32;95490.50;;;20.13;100.00
22047;BME280;11187;49.412;20.956;2022-08-03T08:05:28;95496.53;;;20.13;100.00
22047;BME280;11187;49.412;20.956;2022-08-03T08:08:02;95503.44;;;20.14;100.00
22047;BME280;11187;49.412;20.956;2022-08-03T08:10:56;95497.25;;;20.17;100.00
22047;BME280;11187;49.412;20.956;2022-08-03T08:13:50;95494.25;;;20.24;100.00
22047;BME280;11187;49.412;20.956;2022-08-03T08:16:24;95492.94;;;20.33;100.00
22047;BME280;11187;49.412;20.956;2022-08-03T08:19:10;95501.34;;;20.38;100.00
22047;BME280;11187;49.412;20.956;2022-08-03T08:21:46;95495.91;;;20.43;100.00
22047;BME280;11187;49.412;20.956;2022-08-03T08:24:41;95500.09;;;20.45;100.00
22047;BME280;11187;49.412;20.956;2022-08-03T08:27:17;95500.88;;;20.48;100.00
22047;BME280;11187;49.412;20.956;2022-08-03T08:30:32;95498.19;;;20.49;100.00
22047;BME280;11187;49.412;20.956;2022-08-03T08:33:06;95500.56;;;20.54;100.00
22047;BME280;11187;49.412;20.956;2022-08-03T08:36:02;95501.25;;;20.57;100.00
22047;BME280;11187;49.412;20.956;2022-08-03T08:38:40;95504.56;;;20.61;100.00
22047;BME280;11187;49.412;20.956;2022-08-03T08:41:35;95497.69;;;20.60;100.00
22047;BME280;11187;49.412;20.956;2022-08-03T08:44:31;95496.94;;;20.58;100.00
22047;BME280;11187;49.412;20.956;2022-08-03T08:47:30;95499.63;;;20.55;100.00
22047;BME280;11187;49.412;20.956;2022-08-03T08:50:31;95503.16;;;20.54;100.00
22047;BME280;11187;49.412;20.956;2022-08-03T08:53:06;95500.63;;;20.52;100.00
22047;BME280;11187;49.412;20.956;2022-08-03T08:55:59;95501.56;;;20.51;100.00
22047;BME280;11187;49.412;20.956;2022-08-03T08:58:36;95493.00;;;20.49;100.00
22047;BME280;11187;49.412;20.956;2022-08-03T09:01:25;95500.03;;;20.47;100.00
22047;BME280;11187;49.412;20.956;2022-08-03T09:03:58;95499.22;;;20.47;100.00
22047;BME280;11187;49.412;20.956;2022-08-03T09:06:44;95500.22;;;20.44;100.00
22047;BME280;11187;49.412;20.956;2022-08-03T09:09:38;95501.09;;;20.43;100.00
22047;BME280;11187;49.412;20.956;2022-08-03T09:12:47;95505.66;;;20.39;100.00
22047;BME280;11187;49.412;20.956;2022-08-03T09:15:22;95500.50;;;20.38;100.00
22047;BME280;11187;49.412;20.956;2022-08-03T09:18:12;95498.97;;;20.34;100.00
22047;BME280;11187;49.412;20.956;2022-08-03T09:21:26;95499.97;;;20.31;100.00
22047;BME280;11187;49.412;20.956;2022-08-03T09:24:20;95491.41;;;20.29;100.00
22047;BME280;11187;49.412;20.956;2022-08-03T09:27:10;95487.16;;;20.28;100.00
22047;BME280;11187;49.412;20.956;2022-08-03T09:29:58;95494.94;;;20.28;100.00
22047;BME280;11187;49.412;20.956;2022-08-03T09:32:59;95492.25;;;20.30;100.00
22047;BME280;11187;49.412;20.956;2022-08-03T09:35:55;95489.56;;;20.31;100.00
22047;BME280;11187;49.412;20.956;2022-08-03T09:39:01;95485.16;;;20.33;100.00
22047;BME280;11187;49.412;20.956;2022-08-03T09:45:03;95487.63;;;20.52;100.00
22047;BME280;11187;49.412;20.956;2022-08-03T09:47:37;95490.47;;;20.65;100.00
22047;BME280;11187;49.412;20.956;2022-08-03T09:50:24;95483.84;;;20.75;100.00
22047;BME280;11187;49.412;20.956;2022-08-03T09:53:00;95489.50;;;20.83;100.00
22047;BME280;11187;49.412;20.956;2022-08-03T09:55:53;95487.34;;;20.92;100.00
22047;BME280;11187;49.412;20.956;2022-08-03T09:58:46;95488.53;;;21.02;100.00
22047;BME280;11187;49.412;20.956;2022-08-03T10:01:33;95485.69;;;21.06;99.05
22047;BME280;11187;49.412;20.956;2022-08-03T10:04:15;95479.91;;;21.17;98.86
22047;BME280;11187;49.412;20.956;2022-08-03T10:07:09;95480.16;;;21.28;97.51
22047;BME280;11187;49.412;20.956;2022-08-03T10:09:58;95476.28;;;21.36;94.44
22047;BME280;11187;49.412;20.956;2022-08-03T10:13:12;95478.91;;;21.52;92.91
22047;BME280;11187;49.412;20.956;2022-08-03T10:15:46;95481.16;;;21.74;86.93
22047;BME280;11187;49.412;20.956;2022-08-03T10:19:01;95482.09;;;22.03;87.93
22047;BME280;11187;49.412;20.956;2022-08-03T10:22:00;95474.31;;;22.17;91.76
22047;BME280;11187;49.412;20.956;2022-08-03T10:24:36;95475.28;;;22.30;93.01
22047;BME280;11187;49.412;20.956;2022-08-03T10:27:39;95473.16;;;22.37;93.35
22047;BME280;11187;49.412;20.956;2022-08-03T10:30:35;95474.91;;;22.37;91.78
22047;BME280;11187;49.412;20.956;2022-08-03T10:33:16;95474.91;;;22.37;92.43
22047;BME280;11187;49.412;20.956;2022-08-03T10:36:32;95472.31;;;22.37;91.86
22047;BME280;11187;49.412;20.956;2022-08-03T10:39:28;95470.94;;;22.45;90.54
22047;BME280;11187;49.412;20.956;2022-08-03T10:42:23;95467.00;;;22.52;91.55
22047;BME280;11187;49.412;20.956;2022-08-03T10:45:22;95469.53;;;22.54;91.68
22047;BME280;11187;49.412;20.956;2022-08-03T10:47:58;95470.66;;;22.50;88.40
22047;BME280;11187;49.412;20.956;2022-08-03T10:50:45;95462.06;;;22.48;88.94
22047;BME280;11187;49.412;20.956;2022-08-03T10:53:34;95465.75;;;22.60;88.26
22047;BME280;11187;49.412;20.956;2022-08-03T11:02:19;95458.63;;;23.05;89.85
22047;BME280;11187;49.412;20.956;2022-08-03T11:05:24;95466.94;;;23.11;87.34
22047;BME280;11187;49.412;20.956;2022-08-03T11:14:02;95468.91;;;23.49;87.42
22047;BME280;11187;49.412;20.956;2022-08-03T11:17:07;95457.50;;;23.50;87.75
22047;BME280;11187;49.412;20.956;2022-08-03T11:20:03;95461.88;;;23.64;81.81
22047;BME280;11187;49.412;20.956;2022-08-03T11:22:56;95456.34;;;23.69;82.67
22047;BME280;11187;49.412;20.956;2022-08-03T11:28:51;95452.50;;;23.74;83.24
22047;BME280;11187;49.412;20.956;2022-08-03T11:34:16;95445.91;;;23.54;83.65
22047;BME280;11187;49.412;20.956;2022-08-03T11:37:22;95447.63;;;23.41;84.43
22047;BME280;11187;49.412;20.956;2022-08-03T11:40:46;95446.13;;;23.24;84.56
22047;BME280;11187;49.412;20.956;2022-08-03T11:43:45;95446.16;;;23.10;84.40
22047;BME280;11187;49.412;20.956;2022-08-03T11:46:18;95445.88;;;23.00;86.60
22047;BME280;11187;49.412;20.956;2022-08-03T11:49:10;95448.47;;;22.86;85.99
22047;BME280;11187;49.412;20.956;2022-08-03T11:51:43;95448.22;;;22.76;86.20
22047;BME280;11187;49.412;20.956;2022-08-03T11:54:30;95453.25;;;22.65;86.57
22047;BME280;11187;49.412;20.956;2022-08-03T11:57:03;95451.94;;;22.58;86.96
22047;BME280;11187;49.412;20.956;2022-08-03T11:59:50;95450.06;;;22.45;84.78
22047;BME280;11187;49.412;20.956;2022-08-03T12:02:23;95450.25;;;22.42;86.95
22047;BME280;11187;49.412;20.956;2022-08-03T12:05:18;95451.53;;;22.35;86.92
22047;BME280;11187;49.412;20.956;2022-08-03T12:08:13;95443.13;;;22.30;87.37
22047;BME280;11187;49.412;20.956;2022-08-03T12:11:09;95442.50;;;22.26;87.44
22047;BME280;11187;49.412;20.956;2022-08-03T12:14:04;95442.41;;;22.28;85.88
22047;BME280;11187;49.412;20.956;2022-08-03T12:16:57;95437.84;;;22.31;87.02
22047;BME280;11187;49.412;20.956;2022-08-03T12:19:47;95429.09;;;22.33;87.44
22047;BME280;11187;49.412;20.956;2022-08-03T12:22:36;95434.88;;;22.38;83.69
22047;BME280;11187;49.412;20.956;2022-08-03T12:25:30;95423.22;;;22.43;84.30
22047;BME280;11187;49.412;20.956;2022-08-03T12:28:14;95436.19;;;22.45;85.84
22047;BME280;11187;49.412;20.956;2022-08-03T12:31:17;95430.28;;;22.41;86.86
22047;BME280;11187;49.412;20.956;2022-08-03T12:34:11;95432.06;;;22.41;86.38
22047;BME280;11187;49.412;20.956;2022-08-03T12:36:53;95427.31;;;22.47;85.10
22047;BME280;11187;49.412;20.956;2022-08-03T12:40:03;95426.22;;;22.51;86.70
22047;BME280;11187;49.412;20.956;2022-08-03T12:43:12;95427.78;;;22.54;86.52
22047;BME280;11187;49.412;20.956;2022-08-03T12:46:18;95421.66;;;22.55;89.02
22047;BME280;11187;49.412;20.956;2022-08-03T12:49:11;95419.59;;;22.60;83.59
22047;BME280;11187;49.412;20.956;2022-08-03T12:51:58;95425.44;;;22.64;84.56
22047;BME280;11187;49.412;20.956;2022-08-03T12:54:33;95416.69;;;22.65;86.28
22047;BME280;11187;49.412;20.956;2022-08-03T12:57:20;95415.13;;;22.62;86.94
22047;BME280;11187;49.412;20.956;2022-08-03T12:59:53;95423.88;;;22.61;84.36
22047;BME280;11187;49.412;20.956;2022-08-03T13:02:40;95417.63;;;22.64;85.18
22047;BME280;11187;49.412;20.956;2022-08-03T13:05:43;95426.47;;;22.61;85.25
22047;BME280;11187;49.412;20.956;2022-08-03T13:08:37;95425.84;;;22.58;82.71
22047;BME280;11187;49.412;20.956;2022-08-03T13:11:31;95419.03;;;22.55;83.83
22047;BME280;11187;49.412;20.956;2022-08-03T13:14:42;95427.88;;;22.52;85.25
22047;BME280;11187;49.412;20.956;2022-08-03T13:17:16;95426.13;;;22.53;83.73
22047;BME280;11187;49.412;20.956;2022-08-03T13:20:11;95431.22;;;22.55;83.97
22047;BME280;11187;49.412;20.956;2022-08-03T13:22:45;95422.75;;;22.51;83.65
22047;BME280;11187;49.412;20.956;2022-08-03T13:25:40;95421.34;;;22.45;83.04
22047;BME280;11187;49.412;20.956;2022-08-03T13:28:35;95426.84;;;22.41;84.54
22047;BME280;11187;49.412;20.956;2022-08-03T13:31:08;95428.72;;;22.39;85.79
22047;BME280;11187;49.412;20.956;2022-08-03T13:33:55;95430.84;;;22.32;85.94
22047;BME280;11187;49.412;20.956;2022-08-03T13:36:28;95423.22;;;22.29;85.52
22047;BME280;11187;49.412;20.956;2022-08-03T13:39:35;95421.13;;;22.20;85.17
22047;BME280;11187;49.412;20.956;2022-08-03T13:42:29;95424.84;;;22.16;84.36
22047;BME280;11187;49.412;20.956;2022-08-03T13:45:18;95429.41;;;22.12;83.71
22047;BME280;11187;49.412;20.956;2022-08-03T13:47:52;95432.09;;;22.10;85.67
22047;BME280;11187;49.412;20.956;2022-08-03T13:50:39;95418.38;;;22.07;85.18
22047;BME280;11187;49.412;20.956;2022-08-03T13:53:12;95424.34;;;22.09;83.23
22047;BME280;11187;49.412;20.956;2022-08-03T13:56:06;95417.47;;;22.08;84.07
22047;BME280;11187;49.412;20.956;2022-08-03T13:59:00;95425.19;;;22.09;81.15
22047;BME280;11187;49.412;20.956;2022-08-03T14:01:54;95422.22;;;22.16;80.46
22047;BME280;11187;49.412;20.956;2022-08-03T14:04:48;95421.13;;;22.20;81.43
22047;BME280;11187;49.412;20.956;2022-08-03T14:07:42;95417.75;;;22.18;83.08
22047;BME280;11187;49.412;20.956;2022-08-03T14:10:44;95416.25;;;22.14;82.57
22047;BME280;11187;49.412;20.956;2022-08-03T14:13:17;95416.38;;;22.12;81.47
22047;BME280;11187;49.412;20.956;2022-08-03T14:16:04;95417.38;;;22.09;82.17
22047;BME280;11187;49.412;20.956;2022-08-03T14:18:42;95411.31;;;22.09;81.99
22047;BME280;11187;49.412;20.956;2022-08-03T14:21:37;95409.81;;;22.05;80.42
22047;BME280;11187;49.412;20.956;2022-08-03T14:24:45;95405.47;;;22.05;82.75
22047;BME280;11187;49.412;20.956;2022-08-03T14:27:18;95406.50;;;22.03;82.68
22047;BME280;11187;49.412;20.956;2022-08-03T14:30:13;95402.94;;;22.04;79.98
22047;BME280;11187;49.412;20.956;2022-08-03T14:33:07;95406.28;;;22.06;81.48
22047;BME280;11187;49.412;20.956;2022-08-03T14:36:01;95393.53;;;22.01;81.28
22047;BME280;11187;49.412;20.956;2022-08-03T14:38:55;95391.69;;;22.03;79.20
22047;BME280;11187;49.412;20.956;2022-08-03T14:41:49;95396.88;;;22.03;79.99
22047;BME280;11187;49.412;20.956;2022-08-03T14:44:43;95394.28;;;22.03;80.79
22047;BME280;11187;49.412;20.956;2022-08-03T14:47:16;95401.16;;;22.04;80.87
22047;BME280;11187;49.412;20.956;2022-08-03T14:50:03;95394.38;;;22.02;80.07
22047;BME280;11187;49.412;20.956;2022-08-03T14:52:57;95392.78;;;21.99;80.48
22047;BME280;11187;49.412;20.956;2022-08-03T14:55:44;95392.88;;;21.98;78.85
22047;BME280;11187;49.412;20.956;2022-08-03T14:58:22;95391.94;;;21.99;79.18